Погода Жидчена 2 недели

Брестская область, Белоруссия

17 - 30 июня
  • 17июня
    Сегодня
    +14°
    +26°
    Ясно и безоблачно
    ВремяПогодаТемператураВлажностьДавлениеВетер, м/сВероятность осадков
    00:00Небольшая облачность+17°C92 %745 мм0.6 м/с21 %
    03:00Практически безоблачно+14°C98 %745 мм0.6 м/с3 %
    06:00Облачно с прояснениями+15°C99 %746 мм0.6 м/с2 %
    09:00Практически безоблачно+21°C89 %746 мм1.9 м/с5 %
    12:00Ясно и безоблачно+24°C63 %746 мм3.1 м/с5 %
    15:00Ясно и безоблачно+25°C53 %746 мм3.2 м/с14 %
    18:00Ясно и безоблачно+25°C55 %746 мм2.9 м/с41 %
    21:00Ясно и безоблачно+23°C66 %747 мм1.6 м/с2 %
  • 18июня
    Вторник
    +16°
    +28°
    Небольшая облачность, возможен дождь с грозой
    ВремяПогодаТемператураВлажностьДавлениеВетер, м/сВероятность осадков
    00:00Ясно и безоблачно+18°C77 %748 мм1.1 м/с2 %
    03:00Ясно и безоблачно+16°C85 %748 мм1.0 м/с2 %
    06:00Ясно и безоблачно+15°C86 %749 мм0.7 м/с2 %
    09:00Облачно с прояснениями+21°C70 %750 мм1.7 м/с2 %
    12:00Практически безоблачно+26°C57 %750 мм3.2 м/с6 %
    15:00Небольшая облачность, возможен дождь с грозой+27°C52 %750 мм3.2 м/с32 %
    18:00Небольшая облачность, ливень+27°C69 %750 мм2.5 м/с51 %
    21:00Небольшая облачность+23°C87 %750 мм1.2 м/с20 %
  • 19июня
    Среда
    +15°
    +31°
    Облачно с прояснениями
    ВремяПогодаТемператураВлажностьДавлениеВетер, м/сВероятность осадков
    00:00Ясно и безоблачно+18°C95 %750 мм0.8 м/с2 %
    03:00Небольшая облачность+17°C97 %750 мм0.9 м/с2 %
    06:00Небольшая облачность+17°C96 %750 мм0.7 м/с2 %
    09:00Небольшая облачность+23°C79 %749 мм2.5 м/с2 %
    12:00Облачно с прояснениями+29°C51 %748 мм3.9 м/с2 %
    15:00Облачно с прояснениями+30°C43 %748 мм4.0 м/с2 %
    18:00Практически безоблачно+31°C51 %746 мм3.9 м/с6 %
    21:00Облачно с прояснениями+26°C61 %745 мм3.3 м/с15 %
  • 20июня
    Четверг
    +12°
    +23°
    Ясно и безоблачно
    ВремяПогодаТемператураВлажностьДавлениеВетер, м/сВероятность осадков
    00:00Облачно с прояснениями+20°C66 %745 мм2.2 м/с29 %
    03:00Облачно с прояснениями+19°C76 %744 мм2.0 м/с34 %
    06:00Пасмурно, дождь+17°C95 %745 мм2.0 м/с54 %
    09:00Практически безоблачно+17°C77 %748 мм4.1 м/с45 %
    12:00Практически безоблачно+18°C56 %750 мм4.4 м/с27 %
    15:00Ясно и безоблачно+21°C50 %751 мм3.8 м/с11 %
    18:00Ясно и безоблачно+23°C48 %751 мм3.6 м/с6 %
    21:00Ясно и безоблачно+20°C66 %752 мм1.7 м/с2 %
  • 21июня
    Пятница
    +13°
    +26°
    Ясно и безоблачно
    ВремяПогодаТемператураВлажностьДавлениеВетер, м/сВероятность осадков
    00:00Ясно и безоблачно+15°C76 %751 мм1.1 м/с2 %
    03:00Облачно с прояснениями+13°C79 %752 мм1.1 м/с2 %
    06:00Облачно с прояснениями+13°C83 %751 мм0.7 м/с2 %
    09:00Ясно и безоблачно+19°C66 %752 мм1.8 м/с2 %
    12:00Ясно и безоблачно+22°C48 %751 мм2.5 м/с2 %
    15:00Ясно и безоблачно+24°C46 %751 мм2.3 м/с2 %
    18:00Ясно и безоблачно+25°C47 %750 мм2.2 м/с2 %
    21:00Ясно и безоблачно+22°C76 %749 мм0.6 м/с2 %
Мы используем cookies
Соглашаюсь